sensor_id;sensor_type;location;lat;lon;timestamp;pressure;altitude;pressure_sealevel;temperature;humidity
54994;BME280;40891;47.242;8.648;2023-04-15T00:02:17;95384.03;;;6.60;67.39
54994;BME280;40891;47.242;8.648;2023-04-15T00:04:46;95383.84;;;6.54;68.23
54994;BME280;40891;47.242;8.648;2023-04-15T00:07:12;95389.16;;;6.49;69.07
54994;BME280;40891;47.242;8.648;2023-04-15T00:09:38;95380.03;;;6.39;69.34
54994;BME280;40891;47.242;8.648;2023-04-15T00:12:04;95379.41;;;6.35;69.34
54994;BME280;40891;47.242;8.648;2023-04-15T00:14:29;95381.53;;;6.31;68.77
54994;BME280;40891;47.242;8.648;2023-04-15T00:16:55;95381.53;;;6.31;69.27
54994;BME280;40891;47.242;8.648;2023-04-15T00:19:22;95378.88;;;6.28;70.37
54994;BME280;40891;47.242;8.648;2023-04-15T00:21:48;95375.34;;;6.27;69.49
54994;BME280;40891;47.242;8.648;2023-04-15T00:24:14;95390.38;;;6.26;70.14
54994;BME280;40891;47.242;8.648;2023-04-15T00:26:39;95378.56;;;6.26;70.63
54994;BME280;40891;47.242;8.648;2023-04-15T00:29:05;95377.38;;;6.27;69.97
54994;BME280;40891;47.242;8.648;2023-04-15T00:31:30;95376.03;;;6.31;70.56
54994;BME280;40891;47.242;8.648;2023-04-15T00:33:56;95377.84;;;6.34;69.84
54994;BME280;40891;47.242;8.648;2023-04-15T00:36:21;95374.09;;;6.41;69.95
54994;BME280;40891;47.242;8.648;2023-04-15T00:38:47;95377.69;;;6.50;69.66
54994;BME280;40891;47.242;8.648;2023-04-15T00:41:13;95359.91;;;6.60;69.80
54994;BME280;40891;47.242;8.648;2023-04-15T00:43:38;95366.69;;;6.59;69.57
54994;BME280;40891;47.242;8.648;2023-04-15T00:46:05;95360.59;;;6.64;69.05
54994;BME280;40891;47.242;8.648;2023-04-15T00:48:31;95361.31;;;6.65;70.25
54994;BME280;40891;47.242;8.648;2023-04-15T00:50:57;95365.53;;;6.69;69.78
54994;BME280;40891;47.242;8.648;2023-04-15T00:53:22;95354.78;;;6.71;70.07
54994;BME280;40891;47.242;8.648;2023-04-15T00:55:48;95368.00;;;6.76;70.80
54994;BME280;40891;47.242;8.648;2023-04-15T00:58:15;95365.09;;;6.80;69.99
54994;BME280;40891;47.242;8.648;2023-04-15T01:00:41;95368.38;;;6.88;68.68
54994;BME280;40891;47.242;8.648;2023-04-15T01:03:07;95363.84;;;7.03;70.15
54994;BME280;40891;47.242;8.648;2023-04-15T01:05:33;95364.78;;;7.09;68.51
54994;BME280;40891;47.242;8.648;2023-04-15T01:07:58;95368.16;;;7.13;68.25
54994;BME280;40891;47.242;8.648;2023-04-15T01:10:24;95366.94;;;7.14;68.99
54994;BME280;40891;47.242;8.648;2023-04-15T01:12:50;95363.22;;;7.08;69.45
54994;BME280;40891;47.242;8.648;2023-04-15T01:15:15;95367.72;;;7.14;68.55
54994;BME280;40891;47.242;8.648;2023-04-15T01:17:41;95364.50;;;7.16;68.86
54994;BME280;40891;47.242;8.648;2023-04-15T01:20:07;95366.34;;;7.19;69.27
54994;BME280;40891;47.242;8.648;2023-04-15T01:22:35;95371.44;;;7.29;66.88
54994;BME280;40891;47.242;8.648;2023-04-15T01:25:06;95372.22;;;7.30;67.59
54994;BME280;40891;47.242;8.648;2023-04-15T01:27:34;95368.38;;;7.27;68.55
54994;BME280;40891;47.242;8.648;2023-04-15T01:30:00;95368.69;;;7.38;67.91
54994;BME280;40891;47.242;8.648;2023-04-15T01:32:26;95370.44;;;7.45;68.88
54994;BME280;40891;47.242;8.648;2023-04-15T01:34:52;95375.34;;;7.50;70.58
54994;BME280;40891;47.242;8.648;2023-04-15T01:37:17;95369.66;;;7.53;70.12
54994;BME280;40891;47.242;8.648;2023-04-15T01:39:42;95380.59;;;7.57;68.49
54994;BME280;40891;47.242;8.648;2023-04-15T01:42:08;95383.50;;;7.53;67.32
54994;BME280;40891;47.242;8.648;2023-04-15T01:44:34;95374.59;;;7.59;67.64
54994;BME280;40891;47.242;8.648;2023-04-15T01:47:00;95381.34;;;7.57;65.94
54994;BME280;40891;47.242;8.648;2023-04-15T01:49:25;95380.91;;;7.59;66.37
54994;BME280;40891;47.242;8.648;2023-04-15T01:51:51;95387.97;;;7.69;63.19
54994;BME280;40891;47.242;8.648;2023-04-15T01:54:18;95384.47;;;7.69;63.24
54994;BME280;40891;47.242;8.648;2023-04-15T01:56:43;95380.75;;;7.72;63.47
54994;BME280;40891;47.242;8.648;2023-04-15T01:59:09;95384.78;;;7.71;63.93
54994;BME280;40891;47.242;8.648;2023-04-15T02:01:34;95392.59;;;7.63;64.02
54994;BME280;40891;47.242;8.648;2023-04-15T02:04:00;95385.19;;;7.60;66.33
54994;BME280;40891;47.242;8.648;2023-04-15T02:06:25;95391.19;;;7.49;66.25
54994;BME280;40891;47.242;8.648;2023-04-15T02:08:52;95380.91;;;7.59;65.67
54994;BME280;40891;47.242;8.648;2023-04-15T02:11:18;95388.44;;;7.68;66.95
54994;BME280;40891;47.242;8.648;2023-04-15T02:13:44;95381.38;;;7.67;67.14
54994;BME280;40891;47.242;8.648;2023-04-15T02:16:16;95387.66;;;7.67;66.57
54994;BME280;40891;47.242;8.648;2023-04-15T02:18:45;95381.22;;;7.61;67.38
54994;BME280;40891;47.242;8.648;2023-04-15T02:21:11;95380.00;;;7.71;66.40
54994;BME280;40891;47.242;8.648;2023-04-15T02:23:37;95384.31;;;7.72;66.82
54994;BME280;40891;47.242;8.648;2023-04-15T02:26:02;95384.13;;;7.67;67.42
54994;BME280;40891;47.242;8.648;2023-04-15T02:28:28;95384.00;;;7.70;67.87
54994;BME280;40891;47.242;8.648;2023-04-15T02:30:53;95388.75;;;7.61;68.60
54994;BME280;40891;47.242;8.648;2023-04-15T02:33:21;95392.28;;;7.61;69.52
54994;BME280;40891;47.242;8.648;2023-04-15T02:35:46;95390.59;;;7.64;70.12
54994;BME280;40891;47.242;8.648;2023-04-15T02:38:12;95387.06;;;7.63;70.04
54994;BME280;40891;47.242;8.648;2023-04-15T02:40:38;95379.53;;;7.73;69.40
54994;BME280;40891;47.242;8.648;2023-04-15T02:43:04;95385.25;;;7.78;68.68
54994;BME280;40891;47.242;8.648;2023-04-15T02:45:31;95376.78;;;7.73;69.55
54994;BME280;40891;47.242;8.648;2023-04-15T02:47:57;95386.47;;;7.68;71.03
54994;BME280;40891;47.242;8.648;2023-04-15T02:50:22;95385.06;;;7.64;71.88
54994;BME280;40891;47.242;8.648;2023-04-15T02:52:49;95378.59;;;7.67;72.42
54994;BME280;40891;47.242;8.648;2023-04-15T02:55:15;95393.81;;;7.62;71.93
54994;BME280;40891;47.242;8.648;2023-04-15T02:57:42;95382.00;;;7.71;72.83
54994;BME280;40891;47.242;8.648;2023-04-15T03:00:07;95383.81;;;7.65;73.04
54994;BME280;40891;47.242;8.648;2023-04-15T03:02:36;95386.47;;;7.68;74.24
54994;BME280;40891;47.242;8.648;2023-04-15T03:05:02;95389.22;;;7.59;75.05
54994;BME280;40891;47.242;8.648;2023-04-15T03:07:27;95393.19;;;7.58;74.77
54994;BME280;40891;47.242;8.648;2023-04-15T03:09:52;95391.66;;;7.57;73.73
54994;BME280;40891;47.242;8.648;2023-04-15T03:12:18;95392.75;;;7.69;72.94
54994;BME280;40891;47.242;8.648;2023-04-15T03:14:43;95387.66;;;7.58;72.98
54994;BME280;40891;47.242;8.648;2023-04-15T03:17:08;95385.84;;;7.64;72.22
54994;BME280;40891;47.242;8.648;2023-04-15T03:19:34;95387.97;;;7.60;71.11
54994;BME280;40891;47.242;8.648;2023-04-15T03:21:59;95377.84;;;7.57;71.22
54994;BME280;40891;47.242;8.648;2023-04-15T03:24:25;95393.94;;;7.49;72.19
54994;BME280;40891;47.242;8.648;2023-04-15T03:26:50;95391.19;;;7.49;73.42
54994;BME280;40891;47.242;8.648;2023-04-15T03:29:15;95385.66;;;7.49;73.31
54994;BME280;40891;47.242;8.648;2023-04-15T03:31:41;95383.31;;;7.48;73.29
54994;BME280;40891;47.242;8.648;2023-04-15T03:34:06;95387.16;;;7.50;75.03
54994;BME280;40891;47.242;8.648;2023-04-15T03:36:31;95387.03;;;7.54;75.28
54994;BME280;40891;47.242;8.648;2023-04-15T03:38:58;95383.06;;;7.64;74.80
54994;BME280;40891;47.242;8.648;2023-04-15T03:41:23;95383.22;;;7.61;74.73
54994;BME280;40891;47.242;8.648;2023-04-15T03:43:48;95380.31;;;7.64;74.01
54994;BME280;40891;47.242;8.648;2023-04-15T03:46:16;95377.84;;;7.66;73.57
54994;BME280;40891;47.242;8.648;2023-04-15T03:48:42;95367.41;;;7.70;73.48
54994;BME280;40891;47.242;8.648;2023-04-15T03:51:07;95364.94;;;7.72;73.20
54994;BME280;40891;47.242;8.648;2023-04-15T03:53:32;95372.94;;;7.70;72.93
54994;BME280;40891;47.242;8.648;2023-04-15T03:55:58;95375.38;;;7.68;72.02
54994;BME280;40891;47.242;8.648;2023-04-15T03:58:23;95378.47;;;7.70;71.40
54994;BME280;40891;47.242;8.648;2023-04-15T04:00:48;95374.28;;;7.57;71.24
54994;BME280;40891;47.242;8.648;2023-04-15T04:03:14;95373.81;;;7.49;71.79
54994;BME280;40891;47.242;8.648;2023-04-15T04:05:39;95375.66;;;7.52;72.70
54994;BME280;40891;47.242;8.648;2023-04-15T04:08:06;95377.63;;;7.42;73.18
54994;BME280;40891;47.242;8.648;2023-04-15T04:10:31;95369.78;;;7.41;72.78
54994;BME280;40891;47.242;8.648;2023-04-15T04:12:57;95371.66;;;7.44;72.75
54994;BME280;40891;47.242;8.648;2023-04-15T04:15:22;95383.59;;;7.41;72.70
54994;BME280;40891;47.242;8.648;2023-04-15T04:17:48;95372.72;;;7.37;72.02
54994;BME280;40891;47.242;8.648;2023-04-15T04:20:13;95378.53;;;7.30;73.46
54994;BME280;40891;47.242;8.648;2023-04-15T04:22:40;95385.44;;;7.35;73.63
54994;BME280;40891;47.242;8.648;2023-04-15T04:25:06;95379.13;;;7.34;71.91
54994;BME280;40891;47.242;8.648;2023-04-15T04:27:32;95375.78;;;7.39;74.09
54994;BME280;40891;47.242;8.648;2023-04-15T04:29:58;95383.16;;;7.33;73.86
54994;BME280;40891;47.242;8.648;2023-04-15T04:32:23;95379.59;;;7.33;74.16
54994;BME280;40891;47.242;8.648;2023-04-15T04:34:48;95384.69;;;7.43;72.41
54994;BME280;40891;47.242;8.648;2023-04-15T04:37:14;95386.34;;;7.32;72.93
54994;BME280;40891;47.242;8.648;2023-04-15T04:39:39;95384.34;;;7.32;73.10
54994;BME280;40891;47.242;8.648;2023-04-15T04:42:05;95384.06;;;7.39;73.04
54994;BME280;40891;47.242;8.648;2023-04-15T04:44:30;95379.16;;;7.43;73.43
54994;BME280;40891;47.242;8.648;2023-04-15T04:46:56;95381.00;;;7.37;73.80
54994;BME280;40891;47.242;8.648;2023-04-15T04:49:21;95379.00;;;7.38;74.36
54994;BME280;40891;47.242;8.648;2023-04-15T04:51:47;95379.28;;;7.31;73.79
54994;BME280;40891;47.242;8.648;2023-04-15T04:54:13;95381.31;;;7.39;74.01
54994;BME280;40891;47.242;8.648;2023-04-15T04:56:38;95380.19;;;7.28;73.81
54994;BME280;40891;47.242;8.648;2023-04-15T04:59:04;95385.72;;;7.28;73.42
54994;BME280;40891;47.242;8.648;2023-04-15T05:01:29;95383.59;;;7.41;73.71
54994;BME280;40891;47.242;8.648;2023-04-15T05:03:55;95387.16;;;7.41;73.01
54994;BME280;40891;47.242;8.648;2023-04-15T05:06:21;95385.16;;;7.42;73.36
54994;BME280;40891;47.242;8.648;2023-04-15T05:08:47;95385.63;;;7.40;72.87
54994;BME280;40891;47.242;8.648;2023-04-15T05:11:12;95388.81;;;7.39;73.90
54994;BME280;40891;47.242;8.648;2023-04-15T05:13:37;95393.44;;;7.42;73.73
54994;BME280;40891;47.242;8.648;2023-04-15T05:16:06;95391.78;;;7.44;73.64
54994;BME280;40891;47.242;8.648;2023-04-15T05:18:32;95397.75;;;7.43;74.33
54994;BME280;40891;47.242;8.648;2023-04-15T05:20:58;95394.66;;;7.41;75.90
54994;BME280;40891;47.242;8.648;2023-04-15T05:23:23;95396.69;;;7.40;76.24
54994;BME280;40891;47.242;8.648;2023-04-15T05:25:49;95401.16;;;7.47;75.18
54994;BME280;40891;47.242;8.648;2023-04-15T05:28:14;95394.97;;;7.43;74.91
54994;BME280;40891;47.242;8.648;2023-04-15T05:30:39;95405.72;;;7.41;76.09
54994;BME280;40891;47.242;8.648;2023-04-15T05:33:05;95410.53;;;7.49;75.66
54994;BME280;40891;47.242;8.648;2023-04-15T05:35:30;95407.31;;;7.51;75.83
54994;BME280;40891;47.242;8.648;2023-04-15T05:37:56;95401.28;;;7.43;75.12
54994;BME280;40891;47.242;8.648;2023-04-15T05:40:21;95405.59;;;7.44;73.27
54994;BME280;40891;47.242;8.648;2023-04-15T05:42:47;95408.69;;;7.46;72.18
54994;BME280;40891;47.242;8.648;2023-04-15T05:45:12;95405.13;;;7.46;72.58
54994;BME280;40891;47.242;8.648;2023-04-15T05:47:38;95407.63;;;7.53;71.47
54994;BME280;40891;47.242;8.648;2023-04-15T05:50:04;95407.00;;;7.58;70.69
54994;BME280;40891;47.242;8.648;2023-04-15T05:52:30;95407.78;;;7.59;72.23
54994;BME280;40891;47.242;8.648;2023-04-15T05:54:56;95416.41;;;7.70;71.65
54994;BME280;40891;47.242;8.648;2023-04-15T05:57:21;95413.81;;;7.75;72.57
54994;BME280;40891;47.242;8.648;2023-04-15T05:59:47;95416.00;;;7.89;71.07
54994;BME280;40891;47.242;8.648;2023-04-15T06:02:13;95419.25;;;7.97;70.89
54994;BME280;40891;47.242;8.648;2023-04-15T06:04:38;95413.56;;;8.00;70.71
54994;BME280;40891;47.242;8.648;2023-04-15T06:07:04;95413.84;;;8.02;69.39
54994;BME280;40891;47.242;8.648;2023-04-15T06:09:29;95417.41;;;8.03;69.50
54994;BME280;40891;47.242;8.648;2023-04-15T06:11:55;95413.56;;;8.09;67.63
54994;BME280;40891;47.242;8.648;2023-04-15T06:14:22;95412.66;;;8.31;66.58
54994;BME280;40891;47.242;8.648;2023-04-15T06:16:47;95406.81;;;8.38;66.87
54994;BME280;40891;47.242;8.648;2023-04-15T06:19:12;95407.44;;;8.60;65.27
54994;BME280;40891;47.242;8.648;2023-04-15T06:21:38;95398.97;;;8.63;64.57
54994;BME280;40891;47.242;8.648;2023-04-15T06:24:04;95393.53;;;8.78;62.70
54994;BME280;40891;47.242;8.648;2023-04-15T06:26:29;95410.81;;;8.73;62.80
54994;BME280;40891;47.242;8.648;2023-04-15T06:28:55;95406.66;;;8.77;62.48
54994;BME280;40891;47.242;8.648;2023-04-15T06:31:21;95403.97;;;8.92;61.23
54994;BME280;40891;47.242;8.648;2023-04-15T06:33:47;95404.09;;;9.07;61.29
54994;BME280;40891;47.242;8.648;2023-04-15T06:36:12;95394.66;;;9.22;60.73
54994;BME280;40891;47.242;8.648;2023-04-15T06:38:37;95389.31;;;9.42;61.77
54994;BME280;40891;47.242;8.648;2023-04-15T06:41:03;95395.03;;;9.72;59.46
54994;BME280;40891;47.242;8.648;2023-04-15T06:43:29;95396.75;;;9.93;60.31
54994;BME280;40891;47.242;8.648;2023-04-15T06:45:55;95396.28;;;9.94;59.60
54994;BME280;40891;47.242;8.648;2023-04-15T06:48:21;95398.34;;;10.08;58.32
54994;BME280;40891;47.242;8.648;2023-04-15T06:50:48;95395.22;;;9.92;59.02
54994;BME280;40891;47.242;8.648;2023-04-15T06:53:13;95402.59;;;9.95;58.44
54994;BME280;40891;47.242;8.648;2023-04-15T06:55:39;95402.66;;;9.86;57.89
54994;BME280;40891;47.242;8.648;2023-04-15T06:58:05;95402.31;;;9.93;57.55
54994;BME280;40891;47.242;8.648;2023-04-15T07:00:31;95400.38;;;9.84;58.54
54994;BME280;40891;47.242;8.648;2023-04-15T07:02:58;95406.25;;;9.77;59.35
54994;BME280;40891;47.242;8.648;2023-04-15T07:05:23;95404.50;;;9.89;60.17
54994;BME280;40891;47.242;8.648;2023-04-15T07:07:49;95395.28;;;9.83;58.19
54994;BME280;40891;47.242;8.648;2023-04-15T07:10:15;95402.03;;;9.91;59.34
54994;BME280;40891;47.242;8.648;2023-04-15T07:12:41;95399.19;;;10.00;59.53
54994;BME280;40891;47.242;8.648;2023-04-15T07:15:06;95394.34;;;10.09;58.41
54994;BME280;40891;47.242;8.648;2023-04-15T07:17:32;95389.59;;;10.24;58.22
54994;BME280;40891;47.242;8.648;2023-04-15T07:19:58;95400.47;;;10.37;56.78
54994;BME280;40891;47.242;8.648;2023-04-15T07:22:24;95399.03;;;10.42;56.30
54994;BME280;40891;47.242;8.648;2023-04-15T07:24:49;95396.59;;;10.58;56.46
54994;BME280;40891;47.242;8.648;2023-04-15T07:27:14;95396.38;;;10.47;56.55
54994;BME280;40891;47.242;8.648;2023-04-15T07:29:40;95392.56;;;10.59;55.50
54994;BME280;40891;47.242;8.648;2023-04-15T07:32:06;95394.09;;;10.60;55.89
54994;BME280;40891;47.242;8.648;2023-04-15T07:34:31;95392.41;;;10.77;56.89
54994;BME280;40891;47.242;8.648;2023-04-15T07:36:57;95384.34;;;10.79;55.58
54994;BME280;40891;47.242;8.648;2023-04-15T07:39:22;95383.84;;;10.95;54.98
54994;BME280;40891;47.242;8.648;2023-04-15T07:41:47;95383.19;;;11.01;54.01
54994;BME280;40891;47.242;8.648;2023-04-15T07:44:13;95378.78;;;11.09;53.67
54994;BME280;40891;47.242;8.648;2023-04-15T07:46:38;95379.72;;;11.20;53.86
54994;BME280;40891;47.242;8.648;2023-04-15T07:49:04;95376.06;;;11.29;53.62
54994;BME280;40891;47.242;8.648;2023-04-15T07:51:29;95378.56;;;11.41;51.45
54994;BME280;40891;47.242;8.648;2023-04-15T07:53:56;95377.78;;;11.41;52.16
54994;BME280;40891;47.242;8.648;2023-04-15T07:56:22;95382.69;;;11.31;54.12
54994;BME280;40891;47.242;8.648;2023-04-15T07:58:47;95382.91;;;11.28;53.49
54994;BME280;40891;47.242;8.648;2023-04-15T08:01:13;95368.19;;;11.42;53.50
54994;BME280;40891;47.242;8.648;2023-04-15T08:03:38;95368.38;;;11.38;52.71
54994;BME280;40891;47.242;8.648;2023-04-15T08:06:04;95365.97;;;11.46;53.32
54994;BME280;40891;47.242;8.648;2023-04-15T08:08:29;95371.41;;;11.55;53.49
54994;BME280;40891;47.242;8.648;2023-04-15T08:10:55;95373.09;;;11.67;53.26
54994;BME280;40891;47.242;8.648;2023-04-15T08:13:21;95371.59;;;11.66;54.17
54994;BME280;40891;47.242;8.648;2023-04-15T08:16:15;95377.13;;;11.81;52.82
54994;BME280;40891;47.242;8.648;2023-04-15T08:18:40;95375.91;;;12.02;52.27
54994;BME280;40891;47.242;8.648;2023-04-15T08:21:06;95379.31;;;11.91;51.68
54994;BME280;40891;47.242;8.648;2023-04-15T08:23:31;95372.19;;;11.90;50.43
54994;BME280;40891;47.242;8.648;2023-04-15T08:25:57;95377.72;;;12.05;49.69
54994;BME280;40891;47.242;8.648;2023-04-15T08:28:23;95382.09;;;12.32;50.54
54994;BME280;40891;47.242;8.648;2023-04-15T08:30:48;95385.16;;;12.54;49.80
54994;BME280;40891;47.242;8.648;2023-04-15T08:33:14;95376.31;;;12.81;48.08
54994;BME280;40891;47.242;8.648;2023-04-15T08:35:39;95382.13;;;13.03;46.55
54994;BME280;40891;47.242;8.648;2023-04-15T08:38:04;95379.84;;;13.27;45.22
54994;BME280;40891;47.242;8.648;2023-04-15T08:40:43;95379.00;;;13.21;45.71
54994;BME280;40891;47.242;8.648;2023-04-15T08:43:12;95369.72;;;13.35;44.89
54994;BME280;40891;47.242;8.648;2023-04-15T08:45:40;95376.22;;;13.21;45.18
54994;BME280;40891;47.242;8.648;2023-04-15T08:48:06;95387.56;;;13.12;46.28
54994;BME280;40891;47.242;8.648;2023-04-15T08:50:34;95380.44;;;13.11;46.56
54994;BME280;40891;47.242;8.648;2023-04-15T08:52:59;95384.69;;;12.81;47.13
54994;BME280;40891;47.242;8.648;2023-04-15T08:55:31;95384.91;;;12.77;48.14
54994;BME280;40891;47.242;8.648;2023-04-15T08:57:59;95388.22;;;12.56;49.39
54994;BME280;40891;47.242;8.648;2023-04-15T09:00:25;95390.25;;;12.55;51.39
54994;BME280;40891;47.242;8.648;2023-04-15T09:02:51;95390.53;;;12.37;50.52
54994;BME280;40891;47.242;8.648;2023-04-15T09:05:16;95390.47;;;12.32;50.25
54994;BME280;40891;47.242;8.648;2023-04-15T09:07:42;95395.22;;;12.25;51.08
54994;BME280;40891;47.242;8.648;2023-04-15T09:10:08;95397.50;;;12.27;50.76
54994;BME280;40891;47.242;8.648;2023-04-15T09:12:34;95397.88;;;12.35;50.49
54994;BME280;40891;47.242;8.648;2023-04-15T09:15:01;95399.94;;;12.40;50.55
54994;BME280;40891;47.242;8.648;2023-04-15T09:17:27;95397.28;;;12.30;52.25
54994;BME280;40891;47.242;8.648;2023-04-15T09:22:34;95407.75;;;12.56;54.08
54994;BME280;40891;47.242;8.648;2023-04-15T09:24:59;95403.81;;;12.68;54.52
54994;BME280;40891;47.242;8.648;2023-04-15T09:27:25;95407.28;;;12.83;52.34
54994;BME280;40891;47.242;8.648;2023-04-15T09:29:52;95405.63;;;12.71;54.93
54994;BME280;40891;47.242;8.648;2023-04-15T09:32:18;95414.59;;;12.80;54.24
54994;BME280;40891;47.242;8.648;2023-04-15T09:34:45;95417.78;;;12.68;55.00
54994;BME280;40891;47.242;8.648;2023-04-15T09:37:10;95412.25;;;12.73;52.68
54994;BME280;40891;47.242;8.648;2023-04-15T09:39:49;95417.22;;;12.44;54.66
54994;BME280;40891;47.242;8.648;2023-04-15T09:42:15;95423.91;;;12.32;56.01
54994;BME280;40891;47.242;8.648;2023-04-15T09:44:43;95414.31;;;12.33;56.21
54994;BME280;40891;47.242;8.648;2023-04-15T09:47:09;95428.94;;;12.27;55.83
54994;BME280;40891;47.242;8.648;2023-04-15T09:49:34;95428.22;;;12.12;57.64
54994;BME280;40891;47.242;8.648;2023-04-15T09:52:00;95427.25;;;12.15;58.34
54994;BME280;40891;47.242;8.648;2023-04-15T09:54:36;95426.28;;;12.18;57.80
54994;BME280;40891;47.242;8.648;2023-04-15T09:57:08;95431.31;;;12.35;57.60
54994;BME280;40891;47.242;8.648;2023-04-15T09:59:34;95429.50;;;12.32;59.83
54994;BME280;40891;47.242;8.648;2023-04-15T10:02:03;95433.63;;;12.56;60.25
54994;BME280;40891;47.242;8.648;2023-04-15T10:04:29;95437.13;;;12.77;59.60
54994;BME280;40891;47.242;8.648;2023-04-15T10:06:55;95432.72;;;12.90;62.84
54994;BME280;40891;47.242;8.648;2023-04-15T10:09:21;95443.59;;;13.09;58.63
54994;BME280;40891;47.242;8.648;2023-04-15T10:11:48;95433.63;;;13.28;58.40
54994;BME280;40891;47.242;8.648;2023-04-15T10:14:14;95430.25;;;13.49;58.20
54994;BME280;40891;47.242;8.648;2023-04-15T10:16:40;95440.63;;;13.43;56.04
54994;BME280;40891;47.242;8.648;2023-04-15T10:19:08;95444.38;;;12.89;57.39
54994;BME280;40891;47.242;8.648;2023-04-15T10:21:35;95444.84;;;12.87;52.52
54994;BME280;40891;47.242;8.648;2023-04-15T10:24:02;95450.47;;;12.47;53.15
54994;BME280;40891;47.242;8.648;2023-04-15T10:26:27;95446.63;;;12.24;54.93
54994;BME280;40891;47.242;8.648;2023-04-15T10:28:53;95444.97;;;12.33;55.76
54994;BME280;40891;47.242;8.648;2023-04-15T10:31:19;95448.41;;;12.42;53.17
54994;BME280;40891;47.242;8.648;2023-04-15T10:33:46;95453.38;;;12.38;52.83
54994;BME280;40891;47.242;8.648;2023-04-15T10:36:13;95452.91;;;12.60;56.39
54994;BME280;40891;47.242;8.648;2023-04-15T10:38:40;95451.94;;;12.63;53.36
54994;BME280;40891;47.242;8.648;2023-04-15T10:44:01;95437.72;;;12.61;54.69
54994;BME280;40891;47.242;8.648;2023-04-15T10:46:41;95438.19;;;12.59;53.38
54994;BME280;40891;47.242;8.648;2023-04-15T10:49:11;95442.88;;;12.68;53.20
54994;BME280;40891;47.242;8.648;2023-04-15T10:51:42;95451.09;;;12.77;51.81
54994;BME280;40891;47.242;8.648;2023-04-15T10:54:13;95450.66;;;12.64;53.04
54994;BME280;40891;47.242;8.648;2023-04-15T10:56:43;95447.75;;;12.53;52.08
54994;BME280;40891;47.242;8.648;2023-04-15T10:59:09;95455.50;;;12.43;53.34
54994;BME280;40891;47.242;8.648;2023-04-15T11:01:55;95457.91;;;12.36;54.44
54994;BME280;40891;47.242;8.648;2023-04-15T11:04:52;95460.72;;;12.56;53.04
54994;BME280;40891;47.242;8.648;2023-04-15T11:12:47;95462.34;;;12.07;54.45
54994;BME280;40891;47.242;8.648;2023-04-15T11:15:46;95463.81;;;12.03;56.03
54994;BME280;40891;47.242;8.648;2023-04-15T11:18:17;95478.03;;;11.90;56.00
54994;BME280;40891;47.242;8.648;2023-04-15T11:20:43;95479.41;;;11.66;56.24
54994;BME280;40891;47.242;8.648;2023-04-15T11:23:10;95485.84;;;11.86;57.34
54994;BME280;40891;47.242;8.648;2023-04-15T11:25:36;95484.72;;;11.78;55.63
54994;BME280;40891;47.242;8.648;2023-04-15T11:28:02;95480.09;;;11.75;56.57
54994;BME280;40891;47.242;8.648;2023-04-15T11:30:30;95493.72;;;11.88;61.44
54994;BME280;40891;47.242;8.648;2023-04-15T11:33:04;95493.78;;;12.28;59.24
54994;BME280;40891;47.242;8.648;2023-04-15T11:35:30;95492.41;;;12.38;60.91
54994;BME280;40891;47.242;8.648;2023-04-15T11:37:56;95492.50;;;12.64;58.37
54994;BME280;40891;47.242;8.648;2023-04-15T11:40:28;95494.38;;;12.92;59.78
54994;BME280;40891;47.242;8.648;2023-04-15T11:43:04;95505.31;;;13.16;58.03
54994;BME280;40891;47.242;8.648;2023-04-15T11:45:30;95503.50;;;13.13;58.03
54994;BME280;40891;47.242;8.648;2023-04-15T11:48:04;95512.16;;;12.95;58.49
54994;BME280;40891;47.242;8.648;2023-04-15T11:50:30;95514.13;;;12.49;58.27
54994;BME280;40891;47.242;8.648;2023-04-15T11:52:57;95520.59;;;11.91;60.54
54994;BME280;40891;47.242;8.648;2023-04-15T11:55:24;95527.34;;;11.84;60.70
54994;BME280;40891;47.242;8.648;2023-04-15T11:58:04;95530.28;;;11.81;62.28
54994;BME280;40891;47.242;8.648;2023-04-15T12:00:29;95534.41;;;12.00;62.71
54994;BME280;40891;47.242;8.648;2023-04-15T12:03:13;95538.66;;;11.81;61.71
54994;BME280;40891;47.242;8.648;2023-04-15T12:13:48;95549.13;;;12.35;64.04
54994;BME280;40891;47.242;8.648;2023-04-15T12:16:18;95548.13;;;12.18;64.50
54994;BME280;40891;47.242;8.648;2023-04-15T12:18:50;95560.25;;;12.15;64.00
54994;BME280;40891;47.242;8.648;2023-04-15T12:21:18;95567.44;;;12.07;64.28
54994;BME280;40891;47.242;8.648;2023-04-15T12:23:51;95568.81;;;11.97;68.15
54994;BME280;40891;47.242;8.648;2023-04-15T12:26:27;95580.41;;;11.66;68.39
54994;BME280;40891;47.242;8.648;2023-04-15T12:29:04;95589.09;;;11.30;68.14
54994;BME280;40891;47.242;8.648;2023-04-15T12:31:31;95595.28;;;11.10;68.83
54994;BME280;40891;47.242;8.648;2023-04-15T12:33:58;95593.94;;;11.06;68.42
54994;BME280;40891;47.242;8.648;2023-04-15T12:36:24;95605.59;;;10.71;72.41
54994;BME280;40891;47.242;8.648;2023-04-15T12:38:50;95614.69;;;10.72;71.75
54994;BME280;40891;47.242;8.648;2023-04-15T12:41:16;95608.59;;;10.59;73.20
54994;BME280;40891;47.242;8.648;2023-04-15T12:43:43;95604.47;;;10.78;72.28
54994;BME280;40891;47.242;8.648;2023-04-15T12:46:09;95610.09;;;10.92;72.87
54994;BME280;40891;47.242;8.648;2023-04-15T12:48:35;95610.19;;;10.74;72.65
54994;BME280;40891;47.242;8.648;2023-04-15T12:51:00;95632.13;;;10.49;75.55
54994;BME280;40891;47.242;8.648;2023-04-15T12:53:26;95633.56;;;10.35;78.16
54994;BME280;40891;47.242;8.648;2023-04-15T12:55:52;95629.81;;;10.47;79.42
54994;BME280;40891;47.242;8.648;2023-04-15T12:58:18;95636.41;;;10.26;80.72
54994;BME280;40891;47.242;8.648;2023-04-15T13:00:44;95639.47;;;10.61;80.48
54994;BME280;40891;47.242;8.648;2023-04-15T13:03:09;95636.34;;;10.35;80.70
54994;BME280;40891;47.242;8.648;2023-04-15T13:05:35;95634.44;;;10.50;80.27
54994;BME280;40891;47.242;8.648;2023-04-15T13:08:01;95642.53;;;10.30;82.26
54994;BME280;40891;47.242;8.648;2023-04-15T13:10:28;95634.34;;;10.36;82.59
54994;BME280;40891;47.242;8.648;2023-04-15T13:12:53;95632.25;;;10.54;81.25
54994;BME280;40891;47.242;8.648;2023-04-15T13:15:20;95627.44;;;10.31;80.26
54994;BME280;40891;47.242;8.648;2023-04-15T13:17:47;95631.91;;;10.29;81.04
54994;BME280;40891;47.242;8.648;2023-04-15T13:20:13;95634.59;;;10.14;82.67
54994;BME280;40891;47.242;8.648;2023-04-15T13:22:38;95639.81;;;10.21;82.51